Startpagina
METAR-TAF:

METAR-TAF

Vliegvelden :

Nouméa / La Tontouta, Nieuw-Caledonië

breedte: 22-01S, lengte: 166-13E, hoogte: 16 m

Actueel weer

Dit bericht is 10 minuten geleden gemaakt, om 00:00 UTC
Wind 9 kt uit het zuidoosten, variërend tussen het oosten en het zuiden
Temperatuur 23°C
Vochtigheid 53%
Druk 1021 hPa
Zicht 10 km of meer
geen wolken onder 1500 m en geen cumulonimbus

METAR: NWWW 280000Z AUTO 14009KT 090V180 CAVOK 23/13 Q1021 NOSIG

Tijdstip: 11:10 (00:10 UTC)

Verwachting

Dit bericht is 1 uur en het 10 minuten geleden gemaakt, om 23:00 UTC
Verwachting geldig van 28 om 00 UTC tot 28 om 24 UTC
Wind 12 kt uit het zuidoosten
Zicht 10 km of meer
Verspreide wolken op 4000 ft
Wijzigt naar
van 28 om 06 UTC tot 28 om 08 UTC
Wind 2 kt uit variabele richting

TAF: NWWW 272300Z 2800/2824 14012KT 9999 SCT040 BECMG 2806/2808 VRB02KT

Waarnemingen en weersverwachtingen van meer dan 4000 vliegvelden (METAR en TAF).

De beschikbare stations zijn de gele en rode punten op de kaart.

Ga met uw muis naar het station om de naam te zien.

Klik dan om waarnemingen en weersverwachtingen te zien.

kaart wijzigen: klik op de groene knoppen met een zwart kruis om in te zoomen, op de groene knop met een streepje om uit te zoomen of op de groene pijlen voor aangrenzende kaarten.


METAR-TAF: